Time;durP1;ratioP1;P1;durP2;ratioP2;P2;SDS_P1;SDS_P2;PMS_P1;PMS_P2;Temp;Humidity;BMP_temperature;BMP_pressure;BME280_temperature;BME280_humidity;BME280_pressure;Samples;Min_cycle;Max_cycle;Signal;HPM_P1;HPM_P2
2022/10/09 00:01:05;;;;;;;17.70;4.25;;;10.60;99.90;;;;;;5026133;28;25064;-68
2022/10/09 00:03:31;;;;;;;12.73;3.88;;;10.50;99.90;;;;;;5024498;28;25151;-69
2022/10/09 00:05:57;;;;;;;14.50;3.75;;;10.40;99.90;;;;;;5023255;28;25066;-68
2022/10/09 00:08:23;;;;;;;10.32;3.67;;;10.40;99.90;;;;;;5022461;28;25069;-70
2022/10/09 00:10:48;;;;;;;7.68;4.15;;;10.40;99.90;;;;;;5024708;28;25060;-70
2022/10/09 00:13:14;;;;;;;10.95;3.90;;;10.40;99.90;;;;;;5020066;28;25057;-69
2022/10/09 00:15:42;;;;;;;8.63;3.20;;;10.30;99.90;;;;;;5021887;28;25042;-70
2022/10/09 00:18:09;;;;;;;10.93;3.83;;;10.30;99.90;;;;;;5026458;28;25063;-70
2022/10/09 00:20:39;;;;;;;10.05;3.35;;;10.40;99.90;;;;;;5017697;28;25088;-68
2022/10/09 00:23:05;;;;;;;14.38;3.80;;;10.40;99.90;;;;;;5007288;28;25146;-72
2022/10/09 00:25:32;;;;;;;11.70;4.38;;;10.40;99.90;;;;;;5025041;28;25069;-70
2022/10/09 00:27:58;;;;;;;15.35;4.32;;;10.40;99.90;;;;;;5018966;28;25103;-70
2022/10/09 00:30:25;;;;;;;6.55;3.65;;;10.40;99.90;;;;;;5027306;28;25074;-70
2022/10/09 00:32:50;;;;;;;11.10;4.32;;;10.40;99.90;;;;;;5011289;28;25088;-70
2022/10/09 00:35:16;;;;;;;8.43;4.13;;;10.40;99.90;;;;;;5023834;28;25080;-70
2022/10/09 00:37:42;;;;;;;12.00;4.30;;;10.30;99.90;;;;;;5023458;28;25071;-71
2022/10/09 00:40:08;;;;;;;9.57;3.75;;;10.20;99.90;;;;;;5011173;28;25135;-70
2022/10/09 00:42:33;;;;;;;12.38;3.70;;;10.30;99.90;;;;;;5023330;28;25064;-68
2022/10/09 00:45:01;;;;;;;10.65;3.80;;;10.40;99.90;;;;;;5021747;28;25078;-70
2022/10/09 00:47:36;;;;;;;8.70;3.80;;;10.30;99.90;;;;;;5021723;28;25088;-69
2022/10/09 00:50:20;;;;;;;9.65;3.50;;;10.30;99.90;;;;;;5025939;28;25069;-69
2022/10/09 00:52:49;;;;;;;12.52;3.53;;;10.30;99.90;;;;;;5022788;28;25074;-70
2022/10/09 00:55:15;;;;;;;11.35;3.53;;;10.30;99.90;;;;;;5011470;28;25074;-69
2022/10/09 00:57:41;;;;;;;7.13;2.80;;;10.30;99.90;;;;;;5023040;28;25078;-70
2022/10/09 01:00:10;;;;;;;8.75;3.38;;;10.30;99.90;;;;;;5020435;28;25058;-69
2022/10/09 01:02:37;;;;;;;10.45;3.63;;;10.20;99.90;;;;;;5028700;28;25152;-68
2022/10/09 01:05:03;;;;;;;12.32;3.63;;;10.20;99.90;;;;;;5027732;28;25073;-69
2022/10/09 01:07:44;;;;;;;10.40;3.60;;;10.20;99.90;;;;;;5024792;28;25077;-69
2022/10/09 01:10:36;;;;;;;12.07;3.60;;;10.20;99.90;;;;;;5021310;28;25057;-72
2022/10/09 01:13:16;;;;;;;8.00;3.38;;;10.20;99.90;;;;;;5020399;28;25074;-70
2022/10/09 01:15:51;;;;;;;9.85;3.95;;;10.30;99.90;;;;;;5010440;28;25057;-70
2022/10/09 01:18:36;;;;;;;7.68;4.07;;;10.30;99.90;;;;;;5025610;28;25079;-71
2022/10/09 01:21:13;;;;;;;12.30;3.75;;;10.10;99.90;;;;;;5021548;28;25087;-70
2022/10/09 01:23:55;;;;;;;10.88;3.53;;;10.00;99.90;;;;;;5023036;28;25116;-70
2022/10/09 01:26:48;;;;;;;7.75;3.72;;;9.90;99.90;;;;;;5006433;28;25078;-70
2022/10/09 01:29:14;;;;;;;7.50;3.40;;;10.00;99.90;;;;;;5022060;28;25073;-70
2022/10/09 01:31:43;;;;;;;8.85;3.95;;;10.00;99.90;;;;;;5025198;28;25071;-69
2022/10/09 01:34:12;;;;;;;8.32;3.78;;;10.00;99.90;;;;;;5009694;28;25048;-70
2022/10/09 01:36:39;;;;;;;8.98;3.70;;;10.00;99.90;;;;;;5027264;28;25070;-70
2022/10/09 01:39:08;;;;;;;12.43;3.72;;;10.00;99.90;;;;;;5025939;28;25068;-70
2022/10/09 01:41:34;;;;;;;7.90;3.40;;;9.90;99.90;;;;;;5025757;28;25074;-71
2022/10/09 01:43:59;;;;;;;16.65;4.55;;;10.00;99.90;;;;;;5025612;28;25063;-70
2022/10/09 01:46:31;;;;;;;6.63;3.42;;;10.00;99.90;;;;;;5028109;28;25139;-71
2022/10/09 01:49:16;;;;;;;6.03;3.05;;;10.10;99.90;;;;;;5025470;28;25167;-70
2022/10/09 01:51:59;;;;;;;5.15;3.00;;;10.10;99.90;;;;;;5027529;28;25091;-70
2022/10/09 01:54:36;;;;;;;8.00;3.63;;;10.00;99.90;;;;;;5024087;28;25137;-70
2022/10/09 01:57:03;;;;;;;6.82;3.05;;;10.00;99.90;;;;;;5019731;28;25144;-70
2022/10/09 01:59:32;;;;;;;8.68;3.28;;;10.10;99.90;;;;;;5024161;28;25158;-69
2022/10/09 02:01:58;;;;;;;12.95;4.18;;;10.10;99.90;;;;;;5021329;28;25061;-70
2022/10/09 02:04:26;;;;;;;9.20;3.40;;;10.00;99.90;;;;;;5027781;28;25081;-71
2022/10/09 02:06:52;;;;;;;14.88;4.45;;;9.90;99.90;;;;;;5020906;28;25100;-70
2022/10/09 02:09:18;;;;;;;7.47;3.85;;;9.90;99.90;;;;;;5021025;28;25088;-70
2022/10/09 02:11:49;;;;;;;10.18;3.33;;;9.90;99.90;;;;;;5027325;28;25099;-71
2022/10/09 02:14:15;;;;;;;8.25;3.30;;;10.00;99.90;;;;;;5024787;28;25098;-67
2022/10/09 02:16:45;;;;;;;9.68;3.75;;;10.00;99.90;;;;;;5018898;28;25105;-70
2022/10/09 02:19:19;;;;;;;12.63;3.67;;;10.00;99.90;;;;;;5023346;28;25073;-70
2022/10/09 02:22:12;;;;;;;12.98;4.05;;;10.00;99.90;;;;;;5025846;28;25167;-70
2022/10/09 02:24:39;;;;;;;7.07;3.30;;;10.00;99.90;;;;;;5021655;28;25098;-71
2022/10/09 02:27:05;;;;;;;8.63;3.88;;;9.90;99.90;;;;;;5010846;28;25069;-69
2022/10/09 02:29:31;;;;;;;12.93;4.60;;;9.90;99.90;;;;;;5024378;28;25070;-70
2022/10/09 02:31:57;;;;;;;12.85;4.20;;;10.00;99.90;;;;;;5026229;28;25096;-68
2022/10/09 02:34:23;;;;;;;10.85;4.25;;;10.00;99.90;;;;;;5016457;28;25098;-70
2022/10/09 02:36:49;;;;;;;14.07;4.30;;;10.00;99.90;;;;;;5026308;28;25079;-69
2022/10/09 02:39:15;;;;;;;6.85;3.60;;;10.00;99.90;;;;;;5022015;28;25159;-71
2022/10/09 02:41:41;;;;;;;11.60;3.67;;;9.90;99.90;;;;;;5023818;28;25096;-70
2022/10/09 02:44:07;;;;;;;13.23;3.90;;;10.00;99.90;;;;;;5024429;28;25082;-70
2022/10/09 02:46:33;;;;;;;10.30;4.00;;;10.00;99.90;;;;;;5022216;28;25072;-69
2022/10/09 02:48:58;;;;;;;17.88;5.30;;;10.00;99.90;;;;;;5026771;28;25057;-70
2022/10/09 02:51:24;;;;;;;9.38;4.10;;;9.90;99.90;;;;;;5027798;28;25072;-71
2022/10/09 02:53:54;;;;;;;11.02;4.10;;;9.80;99.90;;;;;;5026647;28;25079;-69
2022/10/09 02:56:23;;;;;;;11.60;4.35;;;9.90;99.90;;;;;;5027612;28;25075;-69
2022/10/09 02:58:48;;;;;;;8.57;3.70;;;9.80;99.90;;;;;;5027242;28;25064;-68
2022/10/09 03:01:14;;;;;;;9.70;4.15;;;9.80;99.90;;;;;;5034808;28;25107;-70
2022/10/09 03:03:40;;;;;;;15.02;4.78;;;9.80;99.90;;;;;;5042519;28;25093;-70
2022/10/09 03:06:08;;;;;;;8.60;4.15;;;9.80;99.90;;;;;;5035834;28;25109;-69
2022/10/09 03:08:34;;;;;;;13.98;4.38;;;9.80;99.90;;;;;;5028012;28;25074;-71
2022/10/09 03:11:00;;;;;;;7.68;4.00;;;9.80;99.90;;;;;;5022154;28;25072;-70
2022/10/09 03:13:26;;;;;;;10.73;4.47;;;9.80;99.90;;;;;;5026419;28;25077;-69
2022/10/09 03:15:52;;;;;;;9.98;3.83;;;9.80;99.90;;;;;;5024558;28;25066;-70
2022/10/09 03:18:17;;;;;;;14.75;4.68;;;9.70;99.90;;;;;;5024882;28;25088;-70
2022/10/09 03:20:43;;;;;;;16.00;4.55;;;9.60;99.90;;;;;;5021675;28;25055;-70
2022/10/09 03:23:08;;;;;;;16.38;4.28;;;9.70;99.90;;;;;;5025302;28;25064;-70
2022/10/09 03:25:34;;;;;;;8.57;4.32;;;9.80;99.90;;;;;;5026090;28;25582;-70
2022/10/09 03:27:59;;;;;;;15.38;4.40;;;9.80;99.90;;;;;;5025479;28;25064;-70
2022/10/09 03:30:25;;;;;;;11.50;4.50;;;9.70;99.90;;;;;;5025964;28;25100;-70
2022/10/09 03:32:51;;;;;;;9.30;4.40;;;9.60;99.90;;;;;;5022721;28;25106;-70
2022/10/09 03:35:16;;;;;;;10.73;4.03;;;9.70;99.90;;;;;;5022601;28;25151;-69
2022/10/09 03:37:42;;;;;;;10.05;4.40;;;9.70;99.90;;;;;;5010723;28;25160;-70
2022/10/09 03:40:08;;;;;;;11.52;4.00;;;9.60;99.90;;;;;;4996562;28;25147;-70
2022/10/09 03:42:33;;;;;;;12.85;4.60;;;9.50;99.90;;;;;;5015598;28;25147;-69
2022/10/09 03:45:03;;;;;;;16.27;5.18;;;9.50;99.90;;;;;;5008606;28;25073;-69
2022/10/09 03:47:29;;;;;;;12.15;4.47;;;9.60;99.90;;;;;;5013689;28;25063;-71
2022/10/09 03:49:55;;;;;;;12.38;4.85;;;9.60;99.90;;;;;;5012869;28;25152;-69
2022/10/09 03:52:20;;;;;;;16.08;4.30;;;9.60;99.90;;;;;;5015781;28;25063;-70
2022/10/09 03:54:46;;;;;;;8.98;4.47;;;9.60;99.90;;;;;;5017043;28;25067;-71
2022/10/09 03:57:11;;;;;;;10.32;4.70;;;9.50;99.90;;;;;;5010356;28;25115;-70
2022/10/09 03:59:37;;;;;;;12.48;5.38;;;9.50;99.90;;;;;;5014544;28;25098;-70
2022/10/09 04:02:02;;;;;;;11.20;4.95;;;9.40;99.90;;;;;;5016565;28;25059;-70
2022/10/09 04:04:28;;;;;;;13.40;5.15;;;9.50;99.90;;;;;;5015768;28;25085;-71
2022/10/09 04:06:54;;;;;;;11.38;4.70;;;9.50;99.90;;;;;;5015176;28;25062;-70
2022/10/09 04:09:19;;;;;;;12.57;4.78;;;9.50;99.90;;;;;;5024728;28;25052;-70
2022/10/09 04:11:45;;;;;;;12.90;5.07;;;9.50;99.90;;;;;;5017510;28;25149;-70
2022/10/09 04:14:10;;;;;;;19.52;5.15;;;9.50;99.90;;;;;;5015543;28;25078;-71
2022/10/09 04:16:36;;;;;;;17.42;5.07;;;9.40;99.90;;;;;;5020387;28;25067;-70
2022/10/09 04:19:02;;;;;;;19.65;5.35;;;9.40;99.90;;;;;;5021354;28;25064;-71
2022/10/09 04:21:27;;;;;;;13.30;5.47;;;9.40;99.90;;;;;;5017815;28;25072;-70
2022/10/09 04:23:53;;;;;;;14.50;5.60;;;9.40;99.90;;;;;;4999036;28;25081;-70
2022/10/09 04:26:18;;;;;;;11.63;6.07;;;9.40;99.90;;;;;;5022990;28;25075;-71
2022/10/09 04:28:44;;;;;;;10.00;4.82;;;9.50;99.90;;;;;;5019178;28;25106;-71
2022/10/09 04:31:10;;;;;;;12.40;5.20;;;9.50;99.90;;;;;;5019969;28;25128;-70
2022/10/09 04:33:35;;;;;;;14.82;5.40;;;9.50;99.90;;;;;;5002907;28;25054;-71
2022/10/09 04:36:01;;;;;;;16.00;5.70;;;9.60;99.90;;;;;;5021560;28;25101;-71
2022/10/09 04:38:27;;;;;;;16.42;5.93;;;9.50;99.90;;;;;;5006598;28;25065;-71
2022/10/09 04:40:57;;;;;;;12.98;5.25;;;9.50;99.90;;;;;;5022347;28;25049;-70
2022/10/09 04:43:23;;;;;;;19.00;5.82;;;9.60;99.90;;;;;;5016787;28;25090;-70
2022/10/09 04:45:49;;;;;;;19.58;5.53;;;9.60;99.90;;;;;;5022348;28;25109;-71
2022/10/09 04:48:14;;;;;;;10.60;5.10;;;9.70;99.90;;;;;;5013260;28;25135;-70
2022/10/09 04:50:40;;;;;;;18.15;5.55;;;9.70;99.90;;;;;;5018143;28;25126;-69
2022/10/09 04:53:05;;;;;;;14.35;5.60;;;9.70;99.90;;;;;;5020675;28;25081;-70
2022/10/09 04:55:31;;;;;;;14.50;5.78;;;9.70;99.90;;;;;;5018170;28;25067;-71
2022/10/09 04:57:56;;;;;;;14.80;5.05;;;9.60;99.90;;;;;;5004533;28;25050;-71
2022/10/09 05:00:22;;;;;;;12.43;5.22;;;9.50;99.90;;;;;;5020597;28;25141;-71
2022/10/09 05:02:47;;;;;;;13.15;4.75;;;9.50;99.90;;;;;;5008977;28;25095;-70
2022/10/09 05:05:13;;;;;;;12.32;5.70;;;9.50;99.90;;;;;;5018667;28;25151;-72
2022/10/09 05:07:39;;;;;;;15.32;6.32;;;9.50;99.90;;;;;;5018123;28;25094;-70
2022/10/09 05:10:05;;;;;;;14.88;5.90;;;9.50;99.90;;;;;;5026118;28;25070;-70
2022/10/09 05:12:31;;;;;;;20.48;5.88;;;9.50;99.90;;;;;;5026758;28;25067;-71
2022/10/09 05:14:56;;;;;;;15.60;6.28;;;9.50;99.90;;;;;;5025083;28;25069;-70
2022/10/09 05:17:22;;;;;;;14.00;5.70;;;9.40;99.90;;;;;;5025642;28;25141;-71
2022/10/09 05:19:47;;;;;;;13.40;7.60;;;9.40;99.90;;;;;;5024822;28;25112;-71
2022/10/09 05:22:13;;;;;;;10.52;5.68;;;9.40;99.90;;;;;;5030321;28;25085;-72
2022/10/09 05:24:39;;;;;;;13.57;5.80;;;9.40;99.90;;;;;;5025895;28;25144;-70
2022/10/09 05:27:04;;;;;;;9.48;5.60;;;9.40;99.90;;;;;;5024953;28;25057;-70
2022/10/09 05:29:30;;;;;;;18.27;6.55;;;9.50;99.90;;;;;;5028388;28;25103;-70
2022/10/09 05:31:56;;;;;;;23.83;5.35;;;9.50;99.90;;;;;;5033031;28;25063;-69
2022/10/09 05:34:21;;;;;;;15.43;5.63;;;9.40;99.90;;;;;;5035357;28;25073;-70
2022/10/09 05:36:47;;;;;;;14.88;5.93;;;9.40;99.90;;;;;;5032340;28;25053;-70
2022/10/09 05:39:12;;;;;;;13.52;6.40;;;9.40;99.90;;;;;;5037605;28;25107;-71
2022/10/09 05:41:38;;;;;;;15.55;7.13;;;9.40;99.90;;;;;;5037304;28;25075;-70
2022/10/09 05:44:03;;;;;;;11.68;5.80;;;9.40;99.90;;;;;;5037693;28;25089;-71
2022/10/09 05:46:29;;;;;;;15.00;6.07;;;9.40;99.90;;;;;;5038149;28;25048;-68
2022/10/09 05:49:00;;;;;;;14.48;5.57;;;9.30;99.90;;;;;;5040668;28;25100;-70
2022/10/09 05:51:29;;;;;;;18.90;7.28;;;9.30;99.90;;;;;;5035435;28;25063;-72
2022/10/09 05:53:55;;;;;;;26.67;8.70;;;9.20;99.90;;;;;;5029243;28;25079;-72
2022/10/09 05:56:44;;;;;;;17.20;8.30;;;9.30;99.90;;;;;;5036914;28;25072;-71
2022/10/09 05:59:18;;;;;;;26.40;9.30;;;9.20;99.90;;;;;;5029420;28;25105;-71
2022/10/09 06:01:45;;;;;;;19.73;9.63;;;9.30;99.90;;;;;;5033224;28;25080;-71
2022/10/09 06:04:13;;;;;;;17.50;9.63;;;9.40;99.90;;;;;;5027971;28;25154;-72
2022/10/09 06:06:40;;;;;;;23.38;10.30;;;9.40;99.90;;;;;;5018080;28;25071;-71
2022/10/09 06:09:07;;;;;;;19.67;9.77;;;9.30;99.90;;;;;;5021148;28;25144;-70
2022/10/09 06:11:35;;;;;;;16.75;9.35;;;9.40;99.90;;;;;;5008443;28;25181;-72
2022/10/09 06:14:03;;;;;;;25.05;9.18;;;9.40;99.90;;;;;;5024133;28;25525;-72
2022/10/09 06:16:31;;;;;;;20.63;9.10;;;9.40;99.90;;;;;;5005080;28;25082;-70
2022/10/09 06:18:57;;;;;;;14.52;9.07;;;9.40;99.90;;;;;;5021030;28;25052;-71
2022/10/09 06:21:25;;;;;;;19.75;10.18;;;9.30;99.90;;;;;;5025064;28;25117;-70
2022/10/09 06:23:52;;;;;;;16.02;9.38;;;9.30;99.90;;;;;;5027520;28;25168;-70
2022/10/09 06:26:19;;;;;;;23.10;9.57;;;9.30;99.90;;;;;;5019700;28;25115;-70
2022/10/09 06:28:45;;;;;;;24.13;10.38;;;9.30;99.90;;;;;;5022567;28;25070;-71
2022/10/09 06:31:12;;;;;;;22.17;10.13;;;9.40;99.90;;;;;;5022117;28;25089;-70
2022/10/09 06:33:39;;;;;;;20.58;10.38;;;9.40;99.90;;;;;;5026584;28;25153;-71
2022/10/09 06:36:08;;;;;;;18.30;10.15;;;9.40;99.90;;;;;;5026285;28;25065;-68
2022/10/09 06:38:34;;;;;;;18.55;10.05;;;9.50;99.90;;;;;;5020513;28;25056;-71
2022/10/09 06:41:05;;;;;;;26.33;12.27;;;9.50;99.90;;;;;;5025978;28;25149;-72
2022/10/09 06:43:31;;;;;;;20.05;10.70;;;9.50;99.90;;;;;;5018319;28;25065;-70
2022/10/09 06:46:00;;;;;;;21.83;10.30;;;9.70;99.90;;;;;;5022562;28;25074;-71
2022/10/09 06:48:31;;;;;;;26.83;10.50;;;9.80;99.90;;;;;;5023250;28;25073;-70
2022/10/09 06:51:18;;;;;;;17.70;9.27;;;9.70;99.90;;;;;;5018949;28;25059;-70
2022/10/09 06:53:51;;;;;;;22.70;9.40;;;9.80;99.90;;;;;;5027091;28;25076;-72
2022/10/09 06:56:19;;;;;;;19.25;8.85;;;9.80;99.90;;;;;;5022388;28;25060;-71
2022/10/09 06:58:45;;;;;;;16.73;8.77;;;10.00;99.90;;;;;;5019955;28;25072;-72
2022/10/09 07:01:16;;;;;;;15.60;7.80;;;9.90;99.90;;;;;;5015744;28;25088;-71
2022/10/09 07:03:45;;;;;;;18.15;9.63;;;10.00;99.90;;;;;;5016126;28;25142;-71
2022/10/09 07:06:14;;;;;;;20.52;8.32;;;10.10;99.90;;;;;;4998182;28;25119;-70
2022/10/09 07:08:41;;;;;;;18.73;8.65;;;10.10;99.90;;;;;;5018582;28;25086;-71
2022/10/09 07:11:12;;;;;;;20.63;8.55;;;10.20;99.90;;;;;;5019450;28;25089;-71
2022/10/09 07:13:39;;;;;;;18.02;7.60;;;10.10;99.90;;;;;;5008578;28;25069;-69
2022/10/09 07:16:05;;;;;;;15.63;8.38;;;10.20;99.90;;;;;;5017371;28;25060;-71
2022/10/09 07:18:33;;;;;;;25.30;8.18;;;10.30;99.90;;;;;;5021866;28;25110;-71
2022/10/09 07:21:03;;;;;;;20.13;7.10;;;10.40;99.90;;;;;;5018901;28;25048;-71
2022/10/09 07:23:30;;;;;;;13.70;6.40;;;10.50;99.90;;;;;;5013480;28;25063;-73
2022/10/09 07:25:57;;;;;;;14.52;7.25;;;10.60;99.90;;;;;;5017701;28;25058;-71
2022/10/09 07:28:25;;;;;;;16.08;6.78;;;10.80;99.90;;;;;;5000842;28;25064;-70
2022/10/09 07:30:51;;;;;;;11.88;6.55;;;10.90;99.90;;;;;;5015395;28;25077;-71
2022/10/09 07:33:16;;;;;;;12.70;6.97;;;11.00;99.90;;;;;;5013037;28;25096;-70
2022/10/09 07:35:42;;;;;;;12.25;6.03;;;11.10;99.90;;;;;;5021461;28;25091;-70
2022/10/09 07:38:07;;;;;;;13.98;5.60;;;11.00;99.90;;;;;;5015428;28;25074;-70
2022/10/09 07:40:34;;;;;;;15.88;6.63;;;11.00;99.90;;;;;;5014363;28;25071;-70
2022/10/09 07:42:59;;;;;;;12.65;5.25;;;11.10;99.90;;;;;;5016581;28;25125;-71
2022/10/09 07:45:25;;;;;;;14.60;6.05;;;11.10;99.90;;;;;;5013785;28;25063;-71
2022/10/09 07:47:50;;;;;;;16.02;4.97;;;11.30;99.90;;;;;;5013055;28;25077;-71
2022/10/09 07:50:16;;;;;;;10.75;5.45;;;11.30;99.90;;;;;;5001943;28;25077;-71
2022/10/09 07:52:41;;;;;;;8.45;4.22;;;11.40;99.90;;;;;;5012563;28;25146;-70
2022/10/09 07:55:07;;;;;;;13.02;4.82;;;11.60;99.90;;;;;;5014402;28;25057;-70
2022/10/09 07:57:33;;;;;;;11.00;4.53;;;11.70;99.90;;;;;;5024850;28;25056;-71
2022/10/09 07:59:58;;;;;;;15.80;4.55;;;11.80;99.90;;;;;;5020411;28;25080;-71
2022/10/09 08:02:24;;;;;;;15.23;4.50;;;12.00;99.90;;;;;;5018549;28;25057;-71
2022/10/09 08:04:49;;;;;;;12.70;4.45;;;12.10;99.90;;;;;;5018596;28;25075;-70
2022/10/09 08:07:15;;;;;;;7.93;3.75;;;12.20;99.90;;;;;;5012705;28;25071;-72
2022/10/09 08:09:40;;;;;;;13.68;4.07;;;12.40;99.90;;;;;;5016591;28;25068;-69
2022/10/09 08:12:06;;;;;;;12.85;4.28;;;12.50;99.90;;;;;;5019510;28;25142;-72
2022/10/09 08:14:31;;;;;;;6.72;3.65;;;12.70;99.90;;;;;;5017665;28;25183;-71
2022/10/09 08:16:57;;;;;;;8.52;3.88;;;12.70;99.90;;;;;;5014108;28;25066;-70
2022/10/09 08:19:23;;;;;;;12.68;3.92;;;12.90;99.90;;;;;;5018839;28;25058;-69
2022/10/09 08:21:48;;;;;;;8.07;3.55;;;13.00;99.90;;;;;;4997817;28;25061;-71
2022/10/09 08:24:14;;;;;;;14.88;4.03;;;12.90;99.90;;;;;;5014187;28;25080;-71
2022/10/09 08:26:39;;;;;;;7.07;3.58;;;13.00;99.90;;;;;;5016189;28;25069;-72
2022/10/09 08:29:07;;;;;;;16.65;4.40;;;13.30;99.90;;;;;;5020336;28;25158;-71
2022/10/09 08:31:32;;;;;;;9.40;3.60;;;13.50;99.90;;;;;;5015379;28;25064;-71
2022/10/09 08:34:00;;;;;;;8.05;3.80;;;13.50;99.90;;;;;;5016592;28;25058;-71
2022/10/09 08:36:27;;;;;;;6.90;3.47;;;13.50;99.90;;;;;;5015019;28;25062;-71
2022/10/09 08:38:52;;;;;;;12.10;3.47;;;13.60;99.90;;;;;;5018766;28;25164;-70
2022/10/09 08:41:44;;;;;;;9.90;3.60;;;13.90;99.90;;;;;;5019332;28;25106;-71
2022/10/09 08:44:26;;;;;;;9.70;3.80;;;13.80;99.90;;;;;;5019728;28;25105;-71
2022/10/09 08:47:07;;;;;;;7.65;3.03;;;13.70;99.90;;;;;;4996487;28;25067;-69
2022/10/09 08:49:52;;;;;;;12.02;3.20;;;13.90;99.90;;;;;;5026598;28;25061;-69
2022/10/09 08:52:36;;;;;;;9.02;2.63;;;14.00;99.90;;;;;;5023969;28;25178;-70
2022/10/09 08:55:16;;;;;;;9.43;4.43;;;13.80;99.90;;;;;;5024659;28;25078;-69
2022/10/09 08:57:45;;;;;;;8.48;3.30;;;13.70;99.90;;;;;;5026943;28;25144;-71
2022/10/09 09:00:15;;;;;;;7.25;2.60;;;13.70;99.90;;;;;;5023511;28;25114;-70
2022/10/09 09:03:09;;;;;;;7.47;2.85;;;13.60;99.90;;;;;;5027580;28;25050;-70
2022/10/09 09:05:59;;;;;;;11.45;3.50;;;13.50;99.90;;;;;;5028513;28;25112;-70
2022/10/09 09:08:54;;;;;;;6.95;2.38;;;13.40;99.90;;;;;;4983527;28;25076;-70
2022/10/09 09:11:37;;;;;;;13.57;3.58;;;13.60;99.90;;;;;;5025214;28;25069;-70
2022/10/09 09:14:42;;;;;;;8.35;3.15;;;13.80;99.90;;;;;;5027342;28;25095;-70
2022/10/09 09:17:21;;;;;;;8.48;2.83;;;14.10;99.90;;;;;;5012668;28;25070;-71
2022/10/09 09:20:00;;;;;;;8.05;2.80;;;14.00;99.90;;;;;;5023836;28;25105;-69
2022/10/09 09:22:26;;;;;;;13.27;3.67;;;14.00;99.90;;;;;;5023463;28;25111;-69
2022/10/09 09:24:54;;;;;;;11.25;2.92;;;13.90;99.90;;;;;;5026132;28;25593;-69
2022/10/09 09:27:29;;;;;;;12.32;2.70;;;13.90;99.90;;;;;;5026233;28;25076;-70
2022/10/09 09:30:00;;;;;;;10.85;2.28;;;14.00;99.90;;;;;;5020126;28;25100;-70
2022/10/09 09:32:29;;;;;;;8.80;2.78;;;13.80;99.90;;;;;;5022623;28;25067;-72
2022/10/09 09:35:18;;;;;;;10.10;2.83;;;14.00;99.90;;;;;;5021875;28;25084;-71
2022/10/09 09:37:44;;;;;;;9.13;2.78;;;14.00;99.90;;;;;;5027331;28;25070;-69
2022/10/09 09:40:14;;;;;;;5.85;2.65;;;14.10;99.90;;;;;;5026963;28;25110;-69
2022/10/09 09:42:42;;;;;;;10.18;3.20;;;14.20;99.90;;;;;;5023545;28;25084;-71
2022/10/09 09:45:15;;;;;;;10.18;3.10;;;14.20;99.90;;;;;;5018192;28;25063;-70
2022/10/09 09:47:49;;;;;;;8.65;3.05;;;14.20;99.90;;;;;;5020544;28;25060;-70
2022/10/09 09:50:26;;;;;;;7.18;2.83;;;14.20;99.90;;;;;;5022314;28;25050;-69
2022/10/09 09:52:53;;;;;;;8.25;2.63;;;14.30;99.90;;;;;;5026159;28;25078;-69
2022/10/09 09:55:28;;;;;;;13.57;2.85;;;14.60;99.90;;;;;;5024171;28;25151;-70
2022/10/09 09:58:04;;;;;;;10.00;2.55;;;14.60;99.90;;;;;;5018991;28;25067;-70
2022/10/09 10:00:29;;;;;;;5.57;2.42;;;14.60;99.90;;;;;;5020448;28;25073;-70
2022/10/09 10:03:15;;;;;;;6.10;2.72;;;14.60;99.90;;;;;;5022349;28;25058;-71
2022/10/09 10:05:42;;;;;;;6.75;2.67;;;14.60;99.90;;;;;;5012233;28;25059;-69
2022/10/09 10:08:22;;;;;;;10.68;3.33;;;14.60;99.90;;;;;;5021479;28;25066;-68
2022/10/09 10:10:51;;;;;;;4.75;2.75;;;14.60;99.90;;;;;;5025294;28;25108;-70
2022/10/09 10:13:19;;;;;;;10.10;3.00;;;14.60;99.90;;;;;;5008313;28;25066;-69
2022/10/09 10:15:56;;;;;;;7.22;2.95;;;14.60;99.90;;;;;;5026027;28;25148;-71
2022/10/09 10:18:28;;;;;;;4.50;2.55;;;14.60;99.90;;;;;;5010348;28;25069;-68
2022/10/09 10:21:03;;;;;;;5.75;3.05;;;14.60;99.90;;;;;;5024737;28;25077;-70
2022/10/09 10:23:36;;;;;;;5.60;2.53;;;14.60;99.90;;;;;;5026609;28;25090;-70
2022/10/09 10:26:15;;;;;;;6.15;2.47;;;14.80;99.90;;;;;;5015594;28;25114;-71
2022/10/09 10:28:51;;;;;;;5.43;2.40;;;14.80;99.90;;;;;;5019562;28;25064;-68
2022/10/09 10:31:42;;;;;;;6.75;2.83;;;14.80;99.90;;;;;;5006213;28;25139;-69
2022/10/09 10:34:23;;;;;;;12.30;2.92;;;14.80;99.90;;;;;;5020258;28;25122;-70
2022/10/09 10:36:56;;;;;;;5.75;2.20;;;15.00;99.90;;;;;;5026110;28;25083;-70
2022/10/09 10:39:40;;;;;;;7.43;2.30;;;15.00;99.90;;;;;;5022581;28;25160;-69
2022/10/09 10:42:16;;;;;;;8.85;2.55;;;15.00;99.90;;;;;;5027191;28;25086;-69
2022/10/09 10:44:59;;;;;;;9.63;3.13;;;15.10;99.90;;;;;;5026644;28;25061;-69
2022/10/09 10:47:28;;;;;;;11.32;3.97;;;15.00;99.90;;;;;;5023865;28;25080;-70
2022/10/09 10:49:54;;;;;;;7.97;2.20;;;15.10;99.90;;;;;;5023536;28;25058;-70
2022/10/09 10:52:47;;;;;;;6.60;2.28;;;15.30;99.90;;;;;;5027766;28;25124;-69
2022/10/09 10:55:31;;;;;;;7.25;2.53;;;15.40;99.90;;;;;;5025551;28;25130;-68
2022/10/09 10:58:23;;;;;;;8.25;2.15;;;15.50;99.90;;;;;;5027126;28;25053;-68
2022/10/09 11:00:58;;;;;;;;;;;15.60;99.90;;;;;;5026926;28;25133;-69
2022/10/09 11:03:38;;;;;;;6.40;3.03;;;15.90;99.90;;;;;;5021111;28;25067;-68
2022/10/09 11:06:11;;;;;;;5.15;2.92;;;16.10;99.90;;;;;;5020334;28;25071;-68
2022/10/09 11:08:54;;;;;;;6.55;2.30;;;16.30;99.90;;;;;;5027522;28;25069;-69
2022/10/09 11:11:41;;;;;;;11.38;2.83;;;16.40;99.90;;;;;;5021561;28;25085;-69
2022/10/09 11:14:41;;;;;;;8.60;3.25;;;16.70;99.90;;;;;;5020367;28;25078;-70
2022/10/09 11:17:17;;;;;;;7.13;2.28;;;16.70;99.90;;;;;;5019851;28;25138;-72
2022/10/09 11:19:55;;;;;;;8.73;3.17;;;16.80;99.90;;;;;;5016999;28;25068;-71
2022/10/09 11:22:38;;;;;;;5.38;2.08;;;16.90;99.90;;;;;;5022162;28;25149;-70
2022/10/09 11:25:40;;;;;;;11.02;2.28;;;17.00;99.90;;;;;;5028443;28;25051;-69
2022/10/09 11:28:16;;;;;;;3.80;2.55;;;17.40;99.90;;;;;;5022087;28;25079;-70
2022/10/09 11:30:49;;;;;;;3.75;1.85;;;17.80;99.90;;;;;;5026231;28;25085;-70
2022/10/09 11:33:44;;;;;;;6.35;2.30;;;18.40;99.90;;;;;;5026070;28;25046;-68
2022/10/09 11:36:32;;;;;;;4.40;2.33;;;19.00;99.90;;;;;;5027396;28;25103;-70
2022/10/09 11:39:01;;;;;;;5.50;2.30;;;19.70;99.90;;;;;;5016784;28;25151;-68
2022/10/09 11:41:29;;;;;;;3.95;2.08;;;19.70;99.90;;;;;;5031626;28;25083;-70
2022/10/09 11:44:29;;;;;;;5.53;2.10;;;19.50;99.90;;;;;;5028808;28;25093;-69
2022/10/09 11:46:54;;;;;;;4.40;2.10;;;19.60;99.90;;;;;;5021301;28;25086;-70
2022/10/09 11:49:46;;;;;;;5.80;2.22;;;20.00;99.90;;;;;;5025582;28;25076;-69
2022/10/09 11:52:24;;;;;;;8.07;3.08;;;20.10;99.90;;;;;;5024352;28;25168;-68
2022/10/09 11:54:49;;;;;;;5.43;2.22;;;20.50;99.90;;;;;;5024285;28;25103;-69
2022/10/09 11:57:27;;;;;;;5.60;2.40;;;20.40;99.90;;;;;;5023506;28;25064;-71
2022/10/09 12:00:06;;;;;;;5.07;2.92;;;20.50;99.90;;;;;;5030647;28;25146;-71
2022/10/09 12:02:32;;;;;;;4.75;2.13;;;20.50;99.90;;;;;;5027650;28;25093;-69
2022/10/09 12:04:58;;;;;;;8.13;2.17;;;20.20;99.90;;;;;;5026629;28;25082;-70
2022/10/09 12:07:33;;;;;;;3.25;1.58;;;20.30;99.90;;;;;;5003640;28;25072;-70
2022/10/09 12:10:07;;;;;;;2.40;1.67;;;20.60;99.90;;;;;;5019302;28;25140;-70
2022/10/09 12:12:33;;;;;;;3.83;1.98;;;20.40;99.90;;;;;;5027660;28;25061;-69
2022/10/09 12:15:20;;;;;;;6.63;2.60;;;20.50;99.90;;;;;;5033716;28;25087;-69
2022/10/09 12:17:48;;;;;;;5.80;2.40;;;21.00;99.90;;;;;;5026131;28;25069;-69
2022/10/09 12:20:21;;;;;;;5.40;2.25;;;21.10;99.90;;;;;;5020848;28;25132;-70
2022/10/09 12:22:52;;;;;;;3.00;1.85;;;20.70;99.90;;;;;;5014556;28;25048;-71
2022/10/09 12:25:42;;;;;;;4.32;1.92;;;20.90;99.90;;;;;;5025754;28;25120;-69
2022/10/09 12:28:22;;;;;;;3.58;2.00;;;20.60;99.90;;;;;;5027313;28;25056;-68
2022/10/09 12:30:50;;;;;;;6.50;1.73;;;20.40;99.90;;;;;;5028152;28;25158;-70
2022/10/09 12:33:27;;;;;;;6.47;2.28;;;20.30;99.90;;;;;;5026494;28;25113;-70
2022/10/09 12:36:09;;;;;;;2.60;1.45;;;20.60;99.90;;;;;;5020657;28;25096;-70
2022/10/09 12:38:34;;;;;;;3.50;1.60;;;20.70;99.90;;;;;;5025683;28;25138;-70
2022/10/09 12:41:04;;;;;;;1.73;1.00;;;20.70;99.90;;;;;;5030336;28;25062;-70
2022/10/09 12:43:31;;;;;;;6.75;1.67;;;20.80;99.90;;;;;;5028615;28;25157;-69
2022/10/09 12:45:57;;;;;;;7.93;2.25;;;21.00;99.90;;;;;;5014300;28;25075;-69
2022/10/09 12:48:26;;;;;;;7.80;1.60;;;20.90;99.90;;;;;;5033552;28;25067;-70
2022/10/09 12:50:52;;;;;;;2.70;1.48;;;20.70;99.90;;;;;;5029152;28;25098;-70
2022/10/09 12:53:21;;;;;;;4.25;1.48;;;20.80;99.90;;;;;;5026837;28;25116;-69
2022/10/09 12:55:59;;;;;;;2.97;1.50;;;20.90;99.90;;;;;;5021929;28;25073;-70
2022/10/09 12:58:30;;;;;;;4.55;1.00;;;20.80;99.90;;;;;;5028798;28;25143;-70
2022/10/09 13:00:58;;;;;;;5.30;1.50;;;20.80;99.90;;;;;;5028517;28;25092;-71
2022/10/09 13:03:25;;;;;;;1.88;1.20;;;21.00;99.90;;;;;;5027924;28;25074;-69